Time;durP1;ratioP1;P1;durP2;ratioP2;P2;SDS_P1;SDS_P2;PMS_P1;PMS_P2;Temp;Humidity;BMP_temperature;BMP_pressure;BME280_temperature;BME280_humidity;BME280_pressure;Samples;Min_cycle;Max_cycle;Signal;HPM_P1;HPM_P2
2022/05/15 00:02:37;;;;;;;9.63;5.55;;;;;;;11.75;69.50;98379.31;5116900;28;20483;-81
2022/05/15 00:05:04;;;;;;;10.05;5.50;;;;;;;11.78;69.21;98381.69;5116624;28;20103;-81
2022/05/15 00:07:30;;;;;;;6.80;5.28;;;;;;;11.83;69.43;98400.84;5081724;28;20384;-81
2022/05/15 00:09:56;;;;;;;6.57;5.30;;;;;;;11.79;69.54;98403.97;5081106;28;20071;-81
2022/05/15 00:12:22;;;;;;;7.07;5.63;;;;;;;11.54;69.86;98406.38;5064627;28;20406;-80
2022/05/15 00:14:48;;;;;;;6.53;5.47;;;;;;;11.43;70.38;98410.16;5098557;28;20431;-81
2022/05/15 00:17:15;;;;;;;7.50;5.55;;;;;;;11.31;70.67;98403.31;5081159;28;20047;-81
2022/05/15 00:19:42;;;;;;;7.47;5.60;;;;;;;11.36;70.25;98400.19;5081008;28;20043;-81
2022/05/15 00:22:08;;;;;;;5.65;4.90;;;;;;;11.42;70.02;98387.03;5097683;28;20047;-81
2022/05/15 00:24:35;;;;;;;9.60;5.28;;;;;;;11.54;70.20;98389.50;5098061;28;20066;-81
2022/05/15 00:27:02;;;;;;;7.00;5.10;;;;;;;11.58;69.97;98382.84;5064425;28;20557;-80
2022/05/15 00:29:29;;;;;;;8.15;5.75;;;;;;;11.61;69.85;98385.22;5080613;28;20032;-81
2022/05/15 00:31:55;;;;;;;12.27;5.70;;;;;;;11.69;70.15;98379.94;5064383;28;20054;-81
2022/05/15 00:34:21;;;;;;;7.40;5.82;;;;;;;11.67;69.74;98377.41;5098025;28;20065;-80
2022/05/15 00:36:47;;;;;;;7.95;5.88;;;;;;;11.69;69.67;98371.91;5064320;28;20036;-80
2022/05/15 00:39:13;;;;;;;9.27;5.93;;;;;;;11.70;69.87;98376.28;5089321;28;20051;-81
2022/05/15 00:41:39;;;;;;;11.73;6.35;;;;;;;11.70;69.47;98378.97;5086232;28;20387;-80
2022/05/15 00:44:07;;;;;;;8.32;6.72;;;;;;;11.71;69.67;98369.94;5082606;28;20122;-81
2022/05/15 00:46:38;;;;;;;8.30;6.18;;;;;;;11.80;69.52;98382.38;5081415;28;20499;-81
2022/05/15 00:49:14;;;;;;;8.85;6.68;;;;;;;11.72;69.42;98376.13;5080589;28;20443;-80
2022/05/15 00:51:51;;;;;;;9.40;6.82;;;;;;;11.84;69.25;98381.09;5097897;28;20126;-81
2022/05/15 00:54:26;;;;;;;10.77;6.35;;;;;;;11.82;68.83;98366.19;5097844;28;20044;-82
2022/05/15 00:56:59;;;;;;;13.10;6.95;;;;;;;11.81;68.63;98370.69;5063912;28;20092;-80
2022/05/15 00:59:28;;;;;;;9.45;7.05;;;;;;;11.74;68.94;98374.97;5080058;28;20040;-81
2022/05/15 01:01:54;;;;;;;11.65;6.47;;;;;;;11.63;69.48;98368.00;5080317;28;20039;-78
2022/05/15 01:04:21;;;;;;;8.55;6.15;;;;;;;11.49;69.91;98367.72;5108856;28;20039;-81
2022/05/15 01:06:47;;;;;;;7.03;5.43;;;;;;;11.41;69.67;98355.09;5064574;28;20117;-79
2022/05/15 01:09:14;;;;;;;5.70;4.97;;;;;;;11.49;69.67;98370.38;5059852;28;20130;-80
2022/05/15 01:11:42;;;;;;;13.55;6.43;;;;;;;11.59;69.33;98361.28;5043552;28;20059;-82
2022/05/15 01:14:11;;;;;;;;;;;;;;;11.70;68.90;98368.25;5043951;28;20461;-81
2022/05/15 01:16:37;;;;;;;5.60;5.00;;;;;;;11.71;68.90;98359.22;5043325;28;20307;-81
2022/05/15 01:19:04;;;;;;;6.93;5.13;;;;;;;11.85;69.06;98366.75;5060325;28;20126;-79
2022/05/15 01:21:34;;;;;;;8.82;5.35;;;;;;;11.96;68.30;98365.66;5043472;28;20056;-80
2022/05/15 01:24:03;;;;;;;6.15;4.53;;;;;;;12.00;67.75;98355.44;5060143;28;20109;-80
2022/05/15 01:26:32;;;;;;;5.72;4.50;;;;;;;12.07;67.67;98370.78;5060100;28;20101;-82
2022/05/15 01:28:59;;;;;;;5.53;4.05;;;;;;;12.14;67.63;98379.00;5060059;28;20063;-81
2022/05/15 01:31:26;;;;;;;6.40;4.30;;;;;;;12.09;67.40;98387.50;5076528;28;20521;-80
2022/05/15 01:33:57;;;;;;;6.28;4.70;;;;;;;11.96;67.90;98378.19;5060222;28;20060;-81
2022/05/15 01:36:25;;;;;;;7.90;3.97;;;;;;;12.07;67.91;98360.06;5060466;28;20044;-80
2022/05/15 01:38:52;;;;;;;4.40;3.95;;;;;;;12.25;67.20;98359.97;5059576;28;20079;-81
2022/05/15 01:41:18;;;;;;;5.47;3.83;;;;;;;12.48;66.89;98367.50;5058984;28;20093;-80
2022/05/15 01:43:47;;;;;;;4.95;3.97;;;;;;;12.63;66.75;98363.22;5076392;28;20141;-81
2022/05/15 01:46:15;;;;;;;4.40;3.95;;;;;;;12.72;66.04;98367.66;5076520;28;20070;-81
2022/05/15 01:48:41;;;;;;;5.03;3.65;;;;;;;12.70;65.98;98376.84;5094429;28;20044;-82
2022/05/15 01:51:09;;;;;;;6.78;4.03;;;;;;;12.70;66.00;98363.44;5059581;28;20188;-80
2022/05/15 01:53:35;;;;;;;5.80;4.15;;;;;;;12.80;65.51;98383.78;5059617;28;20525;-81
2022/05/15 01:56:03;;;;;;;4.93;3.85;;;;;;;12.77;65.25;98375.19;5076092;28;20039;-80
2022/05/15 01:58:29;;;;;;;11.18;3.70;;;;;;;12.66;65.67;98368.28;5075990;28;20040;-80
2022/05/15 02:00:55;;;;;;;3.65;3.25;;;;;;;12.64;65.66;98376.50;5059486;28;20496;-80
2022/05/15 02:03:21;;;;;;;5.05;3.42;;;;;;;12.68;65.71;98371.66;5076057;28;20048;-81
2022/05/15 02:05:46;;;;;;;5.47;3.20;;;;;;;12.60;65.32;98382.34;5059705;28;20419;-80
2022/05/15 02:08:12;;;;;;;5.18;3.50;;;;;;;12.67;65.88;98378.00;5059406;28;20047;-80
2022/05/15 02:10:38;;;;;;;5.65;3.47;;;;;;;12.73;65.50;98390.75;5059421;28;20064;-80
2022/05/15 02:13:05;;;;;;;3.50;3.20;;;;;;;12.74;65.51;98380.88;5076589;28;20047;-79
2022/05/15 02:15:30;;;;;;;5.20;3.10;;;;;;;12.73;65.60;98380.03;5059670;28;20051;-80
2022/05/15 02:17:57;;;;;;;3.88;3.50;;;;;;;12.71;65.53;98376.66;5075706;28;20040;-79
2022/05/15 02:20:24;;;;;;;4.35;3.22;;;;;;;12.72;65.17;98374.84;5058973;28;20417;-79
2022/05/15 02:22:50;;;;;;;4.97;3.10;;;;;;;12.69;65.60;98380.53;5075438;28;20127;-81
2022/05/15 02:25:16;;;;;;;3.60;2.80;;;;;;;12.73;65.62;98382.72;5058841;28;20079;-81
2022/05/15 02:27:43;;;;;;;6.43;3.17;;;;;;;12.75;65.56;98383.41;5058775;28;20036;-79
2022/05/15 02:30:11;;;;;;;3.90;3.30;;;;;;;12.84;65.56;98387.81;5042343;28;20071;-81
2022/05/15 02:32:37;;;;;;;5.13;3.65;;;;;;;12.93;65.62;98383.31;5058796;28;20079;-79
2022/05/15 02:35:03;;;;;;;4.55;3.70;;;;;;;12.99;65.19;98388.03;5075035;28;20514;-81
2022/05/15 02:37:30;;;;;;;6.20;3.40;;;;;;;13.05;65.38;98374.00;5058362;28;20093;-80
2022/05/15 02:39:56;;;;;;;7.38;3.60;;;;;;;13.21;65.19;98375.88;5041891;28;20513;-78
2022/05/15 02:42:22;;;;;;;4.55;3.92;;;;;;;13.45;65.09;98376.97;5058185;28;20044;-81
2022/05/15 02:44:48;;;;;;;7.15;4.03;;;;;;;13.64;64.90;98376.66;5092909;28;20453;-81
2022/05/15 02:47:15;;;;;;;8.55;4.88;;;;;;;13.74;64.29;98372.00;5075260;28;20441;-80
2022/05/15 02:52:25;;;;;;;6.85;4.78;;;;;;;13.70;64.00;98357.22;5074729;28;20603;-82
2022/05/15 02:54:52;;;;;;;7.22;4.82;;;;;;;13.82;64.13;98369.31;5042576;28;20458;-83
2022/05/15 02:57:18;;;;;;;10.15;5.10;;;;;;;13.89;64.17;98372.16;5058818;28;20067;-83
2022/05/15 02:59:44;;;;;;;9.50;5.78;;;;;;;14.04;63.64;98373.16;5075331;28;20048;-82
2022/05/15 03:02:10;;;;;;;8.52;5.57;;;;;;;14.10;63.06;98374.31;5041791;28;20032;-81
2022/05/15 03:04:36;;;;;;;7.97;5.57;;;;;;;14.18;62.96;98379.72;5057790;28;20044;-81
2022/05/15 03:07:05;;;;;;;8.68;5.70;;;;;;;14.33;62.65;98371.81;5058465;28;20445;-81
2022/05/15 03:09:32;;;;;;;12.55;5.95;;;;;;;14.24;62.46;98357.53;5057974;28;20046;-83
2022/05/15 03:11:59;;;;;;;12.48;7.35;;;;;;;14.42;62.15;98369.94;5058542;28;20051;-81
2022/05/15 03:14:25;;;;;;;8.52;6.20;;;;;;;14.58;61.87;98370.75;5058211;28;20410;-80
2022/05/15 03:16:51;;;;;;;10.05;5.90;;;;;;;14.80;61.30;98379.13;5057956;28;20074;-80
2022/05/15 03:19:17;;;;;;;8.38;6.47;;;;;;;14.90;61.10;98378.94;5057954;28;20075;-81
2022/05/15 03:21:43;;;;;;;11.88;5.38;;;;;;;14.86;60.11;98367.66;5092702;28;20500;-81
2022/05/15 03:24:12;;;;;;;8.70;5.20;;;;;;;14.97;60.06;98375.38;5074557;28;20036;-80
2022/05/15 03:26:43;;;;;;;10.13;5.40;;;;;;;15.03;59.91;98373.81;5041242;28;20403;-82
2022/05/15 03:29:11;;;;;;;6.13;4.47;;;;;;;15.02;59.29;98366.75;5041126;28;20043;-80
2022/05/15 03:31:39;;;;;;;9.43;4.45;;;;;;;14.94;59.40;98364.13;5057685;28;20125;-82
2022/05/15 03:34:08;;;;;;;9.73;3.92;;;;;;;15.17;59.30;98370.38;5041302;28;20809;-80
2022/05/15 03:36:34;;;;;;;8.13;4.15;;;;;;;15.41;58.47;98373.97;5057649;28;20579;-80
2022/05/15 03:39:00;;;;;;;6.80;4.00;;;;;;;15.50;58.18;98359.44;5041166;28;20526;-80
2022/05/15 03:41:27;;;;;;;14.95;4.45;;;;;;;15.64;57.58;98371.28;5092422;28;20518;-81
2022/05/15 03:43:54;;;;;;;6.38;3.55;;;;;;;15.76;57.21;98368.06;5074792;28;20411;-81
2022/05/15 03:46:20;;;;;;;4.80;3.33;;;;;;;15.76;57.31;98370.75;5074530;28;20044;-83
2022/05/15 03:48:46;;;;;;;6.70;3.47;;;;;;;15.75;56.81;98358.28;5057573;28;20494;-80
2022/05/15 03:51:13;;;;;;;5.35;3.00;;;;;;;15.56;57.12;98372.19;5075061;28;20051;-81
2022/05/15 03:53:39;;;;;;;5.40;2.80;;;;;;;15.54;57.02;98367.00;5092631;28;20115;-83
2022/05/15 03:56:05;;;;;;;5.40;2.70;;;;;;;15.55;57.00;98370.50;5057601;28;20067;-81
2022/05/15 03:58:34;;;;;;;7.13;3.08;;;;;;;15.65;57.36;98373.84;5074328;28;20147;-81
2022/05/15 04:01:00;;;;;;;4.30;2.78;;;;;;;15.81;56.97;98363.97;5074627;28;20046;-81
2022/05/15 04:03:27;;;;;;;4.97;2.70;;;;;;;15.83;55.89;98360.06;5058447;28;20040;-82
2022/05/15 04:05:53;;;;;;;4.20;2.33;;;;;;;15.89;56.36;98369.28;5062229;28;20040;-82
2022/05/15 04:08:19;;;;;;;6.22;2.50;;;;;;;16.08;56.58;98352.63;5061444;28;20495;-81
2022/05/15 04:10:46;;;;;;;3.30;2.35;;;;;;;16.53;55.62;98356.22;5061379;28;20056;-82
2022/05/15 04:13:12;;;;;;;2.72;2.40;;;;;;;16.93;55.34;98354.16;5044798;28;20039;-81
2022/05/15 04:15:39;;;;;;;8.70;3.22;;;;;;;17.15;55.24;98350.47;5061148;28;20418;-80
2022/05/15 04:18:06;;;;;;;8.27;3.03;;;;;;;17.35;54.20;98347.19;5060858;28;20499;-81
2022/05/15 04:20:33;;;;;;;6.75;3.20;;;;;;;17.52;53.41;98347.75;5061179;28;20526;-79
2022/05/15 04:22:59;;;;;;;5.03;2.80;;;;;;;17.56;52.65;98352.59;5060777;28;20055;-80
2022/05/15 04:25:25;;;;;;;4.63;2.78;;;;;;;17.46;52.41;98352.09;5077849;28;20154;-79
2022/05/15 04:27:51;;;;;;;3.13;2.38;;;;;;;17.59;52.59;98345.97;5060748;28;20575;-79
2022/05/15 04:30:21;;;;;;;6.97;3.35;;;;;;;17.88;51.87;98350.47;5044265;28;20047;-78
2022/05/15 04:32:47;;;;;;;4.13;2.78;;;;;;;18.00;51.39;98351.59;5044438;28;20055;-80
2022/05/15 04:35:13;;;;;;;8.13;2.30;;;;;;;18.06;51.75;98353.53;5061823;28;20047;-79
2022/05/15 04:37:39;;;;;;;4.40;2.00;;;;;;;18.13;50.93;98359.84;5060993;28;20051;-88
2022/05/15 04:40:07;;;;;;;6.88;2.40;;;;;;;18.15;50.99;98360.47;5044640;28;20039;-80
2022/05/15 04:42:33;;;;;;;6.32;1.90;;;;;;;18.11;50.65;98351.06;5098726;28;20055;-84
2022/05/15 04:44:59;;;;;;;8.18;2.20;;;;;;;18.29;50.77;98357.88;5097401;28;20391;-84
2022/05/15 04:47:25;;;;;;;5.18;2.30;;;;;;;18.46;49.69;98353.84;5077881;28;20048;-86
2022/05/15 04:49:52;;;;;;;3.72;1.90;;;;;;;18.41;50.00;98323.84;5060237;28;20140;-79
2022/05/15 04:52:18;;;;;;;3.35;2.13;;;;;;;18.52;49.35;98336.81;5095022;28;20479;-77
2022/05/15 04:54:44;;;;;;;7.35;2.25;;;;;;;18.60;49.75;98343.94;5095857;28;20383;-84
2022/05/15 04:57:10;;;;;;;8.05;2.72;;;;;;;18.59;49.85;98337.69;5059336;28;20047;-83
2022/05/15 04:59:36;;;;;;;3.50;2.25;;;;;;;18.63;49.66;98355.22;5076831;28;20043;-87
2022/05/15 05:02:03;;;;;;;7.90;2.22;;;;;;;18.51;49.46;98361.38;5059954;28;20048;-85
2022/05/15 05:04:29;;;;;;;4.35;2.55;;;;;;;18.41;49.77;98367.13;5077708;28;20044;-91
2022/05/15 05:06:55;;;;;;;4.20;2.22;;;;;;;18.27;49.96;98354.53;5059243;28;20457;-87
2022/05/15 05:09:21;;;;;;;6.13;3.33;;;;;;;18.39;50.32;98366.47;5076558;28;20040;-85
2022/05/15 05:11:47;;;;;;;6.00;2.75;;;;;;;18.28;50.36;98361.59;5043470;28;20064;-86
2022/05/15 05:14:13;;;;;;;5.82;2.33;;;;;;;18.10;50.31;98365.63;5043317;28;20407;-79
2022/05/15 05:16:39;;;;;;;11.50;2.30;;;;;;;18.02;50.91;98365.78;5060512;28;20046;-82
2022/05/15 05:19:05;;;;;;;4.88;2.45;;;;;;;17.86;51.20;98363.31;5077534;28;20062;-83
2022/05/15 05:21:33;;;;;;;11.90;2.40;;;;;;;17.67;52.06;98364.75;5043954;28;20048;-84
2022/05/15 05:24:00;;;;;;;3.72;2.15;;;;;;;17.49;52.66;98354.41;5077389;28;20071;-81
2022/05/15 05:26:27;;;;;;;3.00;2.20;;;;;;;17.40;52.82;98364.47;5042868;28;20048;-84
2022/05/15 05:28:54;;;;;;;7.00;2.45;;;;;;;17.19;52.78;98350.94;5076833;28;20048;-79
2022/05/15 05:31:20;;;;;;;7.35;2.10;;;;;;;17.27;53.46;98363.50;5092723;28;20047;-83
2022/05/15 05:33:46;;;;;;;4.78;2.17;;;;;;;17.43;53.49;98352.47;5046446;28;20064;-82
2022/05/15 05:36:12;;;;;;;3.75;2.53;;;;;;;17.63;53.33;98353.50;5076886;28;20136;-84
2022/05/15 05:38:38;;;;;;;11.88;2.40;;;;;;;17.77;52.77;98332.06;5076426;28;20047;-83
2022/05/15 05:41:04;;;;;;;3.45;2.50;;;;;;;17.84;52.51;98339.19;5059278;28;20051;-82
2022/05/15 05:43:32;;;;;;;12.27;3.00;;;;;;;18.05;52.61;98346.44;5059602;28;20214;-84
2022/05/15 05:45:59;;;;;;;4.82;3.33;;;;;;;18.30;52.57;98346.84;5076069;28;20134;-84
2022/05/15 05:48:28;;;;;;;7.30;3.13;;;;;;;18.38;51.87;98348.56;5075648;28;20040;-84
2022/05/15 05:50:53;;;;;;;;;;;;;;;18.55;51.78;98358.09;5075509;28;20040;-83
2022/05/15 05:53:21;;;;;;;6.22;3.00;;;;;;;18.68;51.14;98352.75;5091033;28;19928;-79
2022/05/15 05:55:48;;;;;;;5.07;2.50;;;;;;;18.63;50.88;98360.63;5057781;28;20542;-87
2022/05/15 05:58:14;;;;;;;3.67;2.22;;;;;;;18.79;50.55;98358.66;5075132;28;20653;-88
2022/05/15 06:00:39;;;;;;;6.82;2.03;;;;;;;18.87;50.40;98344.97;5058157;28;20123;-83
2022/05/15 06:05:51;;;;;;;5.72;2.28;;;;;;;19.53;48.56;98353.38;5090871;28;20170;-83
2022/05/15 06:08:21;;;;;;;4.35;2.10;;;;;;;19.72;49.04;98359.09;5041940;28;20146;-80
2022/05/15 06:10:50;;;;;;;;;;;;;;;20.06;48.94;98367.06;5042556;28;20109;-80
2022/05/15 06:13:16;;;;;;;5.85;1.90;;;;;;;20.18;48.33;98350.16;5075519;28;20433;-81
2022/05/15 06:15:42;;;;;;;6.03;2.10;;;;;;;20.19;48.22;98352.66;5074761;28;20047;-78
2022/05/15 06:18:08;;;;;;;3.00;2.03;;;;;;;20.55;48.08;98360.41;5074618;28;20052;-79
2022/05/15 06:20:34;;;;;;;4.75;2.00;;;;;;;20.60;46.61;98341.59;5039803;28;20522;-81
2022/05/15 06:23:01;;;;;;;9.60;2.42;;;;;;;20.90;46.88;98360.13;5073908;28;20364;-82
2022/05/15 06:25:27;;;;;;;6.85;1.85;;;;;;;21.03;46.45;98357.38;5041198;28;20055;-79
2022/05/15 06:27:53;;;;;;;4.07;2.20;;;;;;;21.04;45.38;98352.78;5058071;28;20043;-78
2022/05/15 06:30:19;;;;;;;7.32;2.75;;;;;;;21.04;46.28;98358.22;5075114;28;20132;-78
2022/05/15 06:32:45;;;;;;;4.18;2.10;;;;;;;21.17;46.27;98362.75;5074845;28;20151;-81
2022/05/15 06:35:13;;;;;;;9.88;2.70;;;;;;;21.09;45.48;98361.94;5074400;28;20395;-82
2022/05/15 06:37:39;;;;;;;9.88;3.00;;;;;;;20.94;46.14;98353.22;5074419;28;20046;-83
2022/05/15 06:40:08;;;;;;;7.20;3.95;;;;;;;20.81;46.02;98347.81;5058793;28;20043;-76
2022/05/15 06:42:34;;;;;;;5.23;3.00;;;;;;;20.66;46.03;98358.09;5093043;28;20066;-79
2022/05/15 06:45:05;;;;;;;9.32;2.60;;;;;;;20.55;45.79;98351.44;5074591;28;20499;-78
2022/05/15 06:47:31;;;;;;;11.20;2.90;;;;;;;20.65;46.07;98348.25;5057975;28;20108;-88
2022/05/15 06:49:58;;;;;;;6.45;2.30;;;;;;;20.75;45.30;98344.06;5057041;28;20151;-81
2022/05/15 06:52:25;;;;;;;7.55;2.35;;;;;;;20.91;44.17;98347.38;5058471;28;20097;-83
2022/05/15 06:54:51;;;;;;;5.18;1.83;;;;;;;20.68;43.87;98331.53;5075166;28;20127;-80
2022/05/15 06:57:29;;;;;;;6.07;1.80;;;;;;;20.65;43.70;98340.97;5093210;28;20048;-80
2022/05/15 07:00:07;;;;;;;5.35;1.88;;;;;;;20.78;43.67;98331.94;5074759;28;20418;-81
2022/05/15 07:02:33;;;;;;;10.68;2.13;;;;;;;20.93;42.65;98329.81;5076006;28;20364;-90
2022/05/15 07:04:59;;;;;;;6.55;1.70;;;;;;;20.72;42.96;98325.47;5057664;28;20040;-78
2022/05/15 07:07:25;;;;;;;5.95;2.15;;;;;;;20.87;44.14;98330.66;5092070;28;20051;-81
2022/05/15 07:09:52;;;;;;;5.97;1.70;;;;;;;21.07;42.99;98326.00;5057156;28;20136;-80
2022/05/15 07:12:18;;;;;;;2.35;1.38;;;;;;;21.26;41.21;98323.44;5057464;28;20414;-78
2022/05/15 07:14:44;;;;;;;2.55;1.70;;;;;;;21.29;41.23;98323.81;5057256;28;20085;-84
2022/05/15 07:17:10;;;;;;;9.38;2.30;;;;;;;21.57;41.56;98330.81;5041065;28;20044;-78
2022/05/15 07:19:36;;;;;;;7.85;1.60;;;;;;;21.69;39.88;98317.34;5091538;28;20040;-78
2022/05/15 07:22:02;;;;;;;4.05;1.67;;;;;;;21.76;40.24;98323.59;5074231;28;20052;-80
2022/05/15 07:24:28;;;;;;;6.43;1.75;;;;;;;21.77;39.45;98333.41;5074117;28;20043;-79
2022/05/15 07:26:54;;;;;;;10.25;1.67;;;;;;;21.86;38.65;98329.38;5101077;28;20028;-79
2022/05/15 07:29:24;;;;;;;9.48;1.70;;;;;;;22.05;38.01;98313.97;5092531;28;20040;-80
2022/05/15 07:31:53;;;;;;;7.43;2.15;;;;;;;22.13;38.92;98318.28;5076868;28;20039;-78
2022/05/15 07:34:19;;;;;;;;;;;;;;;22.29;38.80;98315.88;5076987;28;20397;-79
2022/05/15 07:36:50;;;;;;;6.18;1.42;;;;;;;22.57;38.61;98297.38;5090724;28;20010;-78
2022/05/15 07:39:18;;;;;;;7.50;1.85;;;;;;;22.87;37.53;98292.88;5103310;28;20043;-80
2022/05/15 07:41:44;;;;;;;2.15;1.45;;;;;;;23.32;36.63;98298.00;5097910;28;20035;-79
2022/05/15 07:44:10;;;;;;;10.52;1.60;;;;;;;23.92;36.85;98295.25;5062945;28;20051;-79
2022/05/15 07:46:36;;;;;;;4.32;1.75;;;;;;;24.03;35.14;98285.41;5078292;28;20072;-79
2022/05/15 07:49:02;;;;;;;5.28;1.50;;;;;;;23.96;35.18;98290.16;5097393;28;20040;-82
2022/05/15 07:51:29;;;;;;;4.60;1.55;;;;;;;23.91;33.68;98276.38;5115288;28;20064;-79
2022/05/15 07:53:55;;;;;;;4.75;1.40;;;;;;;23.50;34.05;98267.94;5063702;28;20035;-81
2022/05/15 07:56:20;;;;;;;9.38;2.00;;;;;;;23.22;34.69;98268.53;5061601;28;20040;-78
2022/05/15 07:58:47;;;;;;;7.63;1.58;;;;;;;23.16;34.09;98276.81;5097398;28;20406;-79
2022/05/15 08:01:13;;;;;;;5.18;1.90;;;;;;;23.16;34.38;98276.81;5097106;28;20065;-82
2022/05/15 08:03:43;;;;;;;3.50;1.60;;;;;;;22.99;34.57;98277.44;5097154;28;20047;-89
2022/05/15 08:08:57;;;;;;;4.20;1.63;;;;;;;22.07;35.52;98255.50;5081087;28;20043;-80
2022/05/15 08:11:26;;;;;;;10.10;1.70;;;;;;;21.87;35.98;98268.47;5098051;28;20150;-87
2022/05/15 08:13:53;;;;;;;6.13;1.63;;;;;;;21.93;36.21;98270.31;5080818;28;20049;-86
2022/05/15 08:16:18;;;;;;;10.50;1.65;;;;;;;21.73;35.36;98266.91;5080822;28;20574;-81
2022/05/15 08:24:14;;;;;;;3.65;1.73;;;;;;;21.60;34.96;98261.56;5080710;28;20158;-84
2022/05/15 08:26:41;;;;;;;1.95;1.33;;;;;;;21.76;35.04;98269.19;5115741;28;20486;-81
2022/05/15 08:29:07;;;;;;;6.00;1.52;;;;;;;22.23;34.83;98254.16;5063873;28;20040;-85
2022/05/15 08:31:33;;;;;;;4.60;1.30;;;;;;;22.29;33.49;98247.81;5080297;28;20036;-85
2022/05/15 08:33:59;;;;;;;3.00;1.77;;;;;;;22.88;32.03;98234.56;5096987;28;20406;-86
2022/05/15 08:36:25;;;;;;;5.28;1.55;;;;;;;23.39;31.47;98235.16;5097563;28;20448;-82
2022/05/15 08:38:51;;;;;;;4.22;1.45;;;;;;;23.07;30.89;98240.03;5064166;28;20476;-84
2022/05/15 08:41:24;;;;;;;5.20;1.30;;;;;;;22.99;31.42;98242.00;5097063;28;20142;-80
2022/05/15 08:44:18;;;;;;;5.80;1.80;;;;;;;23.01;31.08;98261.69;5080439;28;20498;-80
2022/05/15 08:47:09;;;;;;;2.47;1.10;;;;;;;22.90;31.30;98248.78;5097378;28;20046;-82
2022/05/15 08:49:41;;;;;;;3.65;1.40;;;;;;;22.38;32.39;98250.22;5064362;28;20046;-81
2022/05/15 08:52:34;;;;;;;4.80;1.38;;;;;;;22.23;32.20;98235.09;5096711;28;20145;-80
2022/05/15 08:55:08;;;;;;;6.63;1.90;;;;;;;22.36;31.90;98242.28;5080755;28;20036;-80
2022/05/15 08:57:56;;;;;;;5.07;1.42;;;;;;;22.69;32.13;98247.38;5063660;28;20040;-80
2022/05/15 09:00:28;;;;;;;4.60;1.30;;;;;;;23.17;31.00;98253.94;5097233;28;20050;-78
2022/05/15 09:03:00;;;;;;;4.93;1.30;;;;;;;23.13;31.42;98248.13;5080305;28;20047;-79
2022/05/15 09:05:29;;;;;;;3.47;1.45;;;;;;;23.14;31.73;98248.97;5080393;28;20635;-80
2022/05/15 09:08:03;;;;;;;5.68;1.92;;;;;;;23.14;31.37;98249.78;5097087;28;20082;-79
2022/05/15 09:10:37;;;;;;;2.97;1.33;;;;;;;23.38;30.75;98245.25;5063098;28;20048;-79
2022/05/15 09:13:11;;;;;;;4.82;1.77;;;;;;;23.40;30.28;98221.31;5079860;28;20048;-79
2022/05/15 09:15:43;;;;;;;6.03;1.65;;;;;;;23.41;31.29;98231.16;5079970;28;20051;-79
2022/05/15 09:18:17;;;;;;;3.97;1.50;;;;;;;23.31;33.63;98241.78;5079858;28;20490;-79
2022/05/15 09:20:58;;;;;;;5.22;1.55;;;;;;;23.01;34.38;98253.50;5115382;28;20062;-78
2022/05/15 09:23:35;;;;;;;4.93;1.75;;;;;;;22.58;34.67;98214.63;5062896;28;20043;-80
2022/05/15 09:26:26;;;;;;;7.15;1.50;;;;;;;22.71;34.70;98255.31;5062977;28;20409;-80
2022/05/15 09:28:57;;;;;;;4.88;1.40;;;;;;;22.48;34.11;98259.53;5054527;28;20044;-80
2022/05/15 09:31:30;;;;;;;3.10;1.52;;;;;;;22.44;33.76;98250.16;5094703;28;20036;-80
2022/05/15 09:34:16;;;;;;;7.18;1.60;;;;;;;22.38;34.31;98259.25;5058048;28;20052;-80
2022/05/15 09:36:44;;;;;;;4.95;1.73;;;;;;;21.96;35.33;98264.41;5062546;28;20092;-81
2022/05/15 09:39:35;;;;;;;8.68;1.67;;;;;;;21.85;36.02;98262.41;5062678;28;20042;-80
2022/05/15 09:45:25;;;;;;;8.15;2.50;;;;;;;21.23;40.86;98272.22;5079786;28;20047;-79
2022/05/15 09:47:51;;;;;;;4.35;2.80;;;;;;;21.05;43.30;98284.63;5095979;28;20075;-79
2022/05/15 09:50:57;;;;;;;7.15;2.80;;;;;;;21.61;44.05;98276.81;5114408;28;20162;-79
2022/05/15 09:53:30;;;;;;;7.50;2.53;;;;;;;21.85;42.58;98270.56;4963062;28;20050;-79
2022/05/15 09:56:22;;;;;;;5.07;2.75;;;;;;;22.51;41.33;98278.16;4995942;28;20053;-80
2022/05/15 09:58:53;;;;;;;5.80;2.10;;;;;;;22.36;38.69;98280.41;5057659;28;20059;-81
2022/05/15 10:01:35;;;;;;;6.13;1.80;;;;;;;21.57;38.21;98274.53;5042269;28;20089;-79
2022/05/15 10:04:08;;;;;;;1.85;1.70;;;;;;;21.29;38.34;98279.50;5044575;28;20044;-79
2022/05/15 10:06:47;;;;;;;3.30;1.98;;;;;;;21.37;38.88;98268.41;5042535;28;20046;-81
2022/05/15 10:09:22;;;;;;;2.35;1.73;;;;;;;22.25;37.85;98262.91;5042446;28;20066;-81
2022/05/15 10:11:52;;;;;;;6.78;1.60;;;;;;;23.05;36.00;98270.22;5075017;28;20051;-80
2022/05/15 10:14:47;;;;;;;3.67;1.30;;;;;;;23.12;33.54;98264.69;5059219;28;20043;-80
2022/05/15 10:17:14;;;;;;;6.53;1.20;;;;;;;22.80;33.41;98267.59;5036575;28;20059;-81
2022/05/15 10:19:48;;;;;;;3.17;1.20;;;;;;;23.09;33.35;98251.53;5042007;28;20047;-79
2022/05/15 10:22:31;;;;;;;5.00;1.35;;;;;;;23.60;32.19;98251.00;5058456;28;20040;-80
2022/05/15 10:25:21;;;;;;;8.23;1.33;;;;;;;24.23;31.96;98264.06;5041997;28;20086;-79
2022/05/15 10:27:54;;;;;;;6.35;1.30;;;;;;;24.95;29.18;98244.63;5042214;28;20590;-81
2022/05/15 10:30:29;;;;;;;3.13;1.05;;;;;;;25.06;28.04;98240.22;5076020;28;20467;-80
2022/05/15 10:33:01;;;;;;;2.60;1.30;;;;;;;25.23;27.45;98258.59;5075973;28;20066;-81
2022/05/15 10:35:48;;;;;;;4.32;1.08;;;;;;;25.61;27.92;98231.44;5042407;28;20047;-85
2022/05/15 10:38:49;;;;;;;2.78;1.10;;;;;;;25.67;27.27;98229.59;5058384;28;20085;-82
2022/05/15 10:41:19;;;;;;;3.22;1.02;;;;;;;25.47;26.67;98230.06;5058148;28;20138;-80
2022/05/15 10:44:05;;;;;;;3.67;1.20;;;;;;;25.92;26.53;98241.00;5058777;28;20447;-82
2022/05/15 10:46:45;;;;;;;3.08;0.98;;;;;;;26.27;26.47;98236.34;5058414;28;20131;-80
2022/05/15 10:49:33;;;;;;;1.35;1.10;;;;;;;26.88;25.85;98234.44;5058639;28;20379;-81
2022/05/15 10:52:13;;;;;;;3.43;1.27;;;;;;;26.83;25.67;98246.19;5058581;28;20047;-81
2022/05/15 10:58:18;;;;;;;9.20;1.35;;;;;;;27.09;25.21;98219.91;5057989;28;20040;-78
2022/05/15 11:01:05;;;;;;;3.58;1.20;;;;;;;27.33;25.68;98228.69;5041587;28;20076;-80
2022/05/15 11:03:54;;;;;;;4.18;1.40;;;;;;;27.77;25.06;98225.03;5041627;28;20117;-78
2022/05/15 11:06:33;;;;;;;8.30;1.48;;;;;;;28.12;24.49;98226.38;5058532;28;20040;-80
2022/05/15 11:09:10;;;;;;;2.30;1.40;;;;;;;27.63;24.31;98218.28;5059564;28;20047;-80
2022/05/15 11:12:14;;;;;;;4.90;1.40;;;;;;;26.94;26.20;98213.41;5045442;28;20414;-78
2022/05/15 11:15:01;;;;;;;3.70;1.60;;;;;;;27.22;26.22;98217.88;5077042;28;20048;-80
2022/05/15 11:17:40;;;;;;;;;;;;;;;27.49;25.46;98218.69;5062854;28;20122;-79
2022/05/15 11:20:13;;;;;;;3.40;1.50;;;;;;;27.75;25.62;98217.03;5078855;28;19920;-81
2022/05/15 11:22:47;;;;;;;3.78;1.30;;;;;;;27.98;25.77;98221.38;5061857;28;20047;-84
2022/05/15 11:25:38;;;;;;;1.75;1.30;;;;;;;28.63;26.78;98205.56;5078954;28;20048;-80
2022/05/15 11:28:18;;;;;;;7.35;2.17;;;;;;;29.54;25.40;98215.22;5078622;28;20048;-81
2022/05/15 11:30:47;;;;;;;7.38;1.60;;;;;;;29.65;25.18;98200.41;5096704;28;20051;-80
2022/05/15 11:33:51;;;;;;;4.75;1.75;;;;;;;29.82;25.69;98207.56;5078322;28;20048;-79
2022/05/15 11:36:31;;;;;;;4.07;1.90;;;;;;;30.48;24.36;98204.75;5078569;28;20553;-78
2022/05/15 11:39:02;;;;;;;7.75;2.03;;;;;;;30.85;23.32;98206.31;5061476;28;20544;-79
2022/05/15 11:41:39;;;;;;;2.67;1.67;;;;;;;30.96;23.32;98197.69;5078394;28;20446;-77
2022/05/15 11:44:14;;;;;;;2.80;1.63;;;;;;;30.71;23.89;98203.28;5061504;28;20376;-79
2022/05/15 11:46:50;;;;;;;4.30;1.83;;;;;;;31.30;23.53;98202.53;5044953;28;20453;-80
2022/05/15 11:49:22;;;;;;;5.65;2.15;;;;;;;31.69;23.18;98191.47;5078094;28;20079;-77
2022/05/15 11:52:14;;;;;;;8.73;2.22;;;;;;;32.07;22.21;98188.94;5078254;28;20048;-80
2022/05/15 11:54:45;;;;;;;6.50;3.05;;;;;;;31.99;22.61;98192.34;5078045;28;20133;-76
2022/05/15 11:57:50;;;;;;;10.18;2.58;;;;;;;32.32;22.84;98198.94;5061160;28;20517;-76
2022/05/15 12:00:30;;;;;;;7.75;2.58;;;;;;;32.50;22.40;98185.47;5077271;28;20567;-78
2022/05/15 12:02:58;;;;;;;6.57;2.22;;;;;;;31.97;23.49;98191.81;5044632;28;20048;-78
2022/05/15 12:05:38;;;;;;;6.53;2.30;;;;;;;31.97;23.79;98204.78;5095637;28;20044;-79
2022/05/15 12:08:28;;;;;;;5.47;2.33;;;;;;;31.73;23.68;98179.84;5061142;28;20052;-78
2022/05/15 12:11:12;;;;;;;8.88;2.20;;;;;;;29.64;26.04;98186.88;5060776;28;20059;-79